Time;durP1;ratioP1;P1;durP2;ratioP2;P2;SDS_P1;SDS_P2;PMS_P1;PMS_P2;Temp;Humidity;BMP_temperature;BMP_pressure;BME280_temperature;BME280_humidity;BME280_pressure;Samples;Min_cycle;Max_cycle;Signal;HPM_P1;HPM_P2
2023/03/08 00:01:01;;;;;;;9.40;7.03;;;5.40;57.20;;;;;;5041179;28;20243;-84
2023/03/08 00:03:27;;;;;;;9.00;8.10;;;5.40;57.60;;;;;;5042412;28;20181;-85
2023/03/08 00:05:53;;;;;;;11.27;8.47;;;5.40;58.20;;;;;;5044432;28;20212;-86
2023/03/08 00:08:18;;;;;;;9.63;8.23;;;5.30;58.60;;;;;;5040899;28;20255;-87
2023/03/08 00:10:44;;;;;;;10.90;8.63;;;5.20;59.20;;;;;;5042973;28;20168;-84
2023/03/08 00:13:11;;;;;;;11.30;8.10;;;5.10;59.20;;;;;;5041963;28;20216;-84
2023/03/08 00:15:37;;;;;;;9.93;8.30;;;5.20;59.20;;;;;;5043270;28;20179;-85
2023/03/08 00:18:04;;;;;;;9.80;8.50;;;5.10;59.10;;;;;;5057339;28;20213;-82
2023/03/08 00:20:30;;;;;;;9.43;7.83;;;5.00;59.60;;;;;;5053982;28;20215;-84
2023/03/08 00:22:55;;;;;;;11.10;9.23;;;5.00;60.00;;;;;;5056305;28;20185;-84
2023/03/08 00:25:21;;;;;;;10.30;8.50;;;5.00;59.40;;;;;;5056522;28;20177;-84
2023/03/08 00:27:47;;;;;;;10.07;8.33;;;5.00;59.10;;;;;;5056929;28;20200;-83
2023/03/08 00:30:13;;;;;;;9.50;7.70;;;5.00;59.20;;;;;;5056520;28;20176;-84
2023/03/08 00:32:39;;;;;;;10.07;8.60;;;5.00;58.80;;;;;;5046253;28;20224;-85
2023/03/08 00:35:05;;;;;;;11.43;8.90;;;4.90;59.60;;;;;;5044789;28;20188;-84
2023/03/08 00:37:30;;;;;;;9.73;8.73;;;4.80;59.80;;;;;;5044923;28;20173;-83
2023/03/08 00:39:56;;;;;;;10.37;9.00;;;4.90;59.30;;;;;;5044389;28;20560;-83
2023/03/08 00:42:22;;;;;;;11.27;9.07;;;4.90;59.70;;;;;;5044530;28;20238;-84
2023/03/08 00:44:48;;;;;;;10.03;8.90;;;4.80;59.70;;;;;;5042436;28;20538;-83
2023/03/08 00:47:14;;;;;;;11.10;9.33;;;4.80;59.80;;;;;;5042165;28;20247;-82
2023/03/08 00:49:41;;;;;;;10.13;9.10;;;4.70;59.90;;;;;;5040679;28;20201;-84
2023/03/08 00:52:07;;;;;;;12.03;9.47;;;4.80;59.50;;;;;;5041380;28;20209;-83
2023/03/08 00:54:32;;;;;;;10.93;8.80;;;4.80;59.40;;;;;;5043440;28;20192;-82
2023/03/08 00:56:58;;;;;;;13.63;9.37;;;4.80;59.90;;;;;;5043437;28;20184;-84
2023/03/08 00:59:24;;;;;;;11.10;9.20;;;4.70;61.00;;;;;;5043842;28;20189;-84
2023/03/08 01:01:50;;;;;;;12.87;9.67;;;4.80;59.80;;;;;;5042841;28;20188;-83
2023/03/08 01:04:16;;;;;;;12.33;9.33;;;4.80;59.70;;;;;;5042642;28;20192;-84
2023/03/08 01:06:42;;;;;;;12.20;9.20;;;4.70;59.90;;;;;;5043941;28;20233;-86
2023/03/08 01:09:08;;;;;;;13.60;10.27;;;4.70;60.20;;;;;;5043161;28;20690;-81
2023/03/08 01:11:35;;;;;;;11.63;8.27;;;4.70;60.10;;;;;;5044692;28;20204;-85
2023/03/08 01:14:02;;;;;;;11.53;8.70;;;4.80;59.70;;;;;;5045757;28;20189;-82
2023/03/08 01:16:30;;;;;;;11.87;8.83;;;4.70;59.70;;;;;;5046396;28;20181;-84
2023/03/08 01:18:57;;;;;;;14.13;9.57;;;4.70;60.10;;;;;;5032065;28;20221;-85
2023/03/08 01:21:24;;;;;;;13.87;9.70;;;4.60;61.20;;;;;;5024537;28;20199;-85
2023/03/08 01:23:50;;;;;;;11.83;9.17;;;4.60;60.20;;;;;;5024604;28;20625;-82
2023/03/08 01:26:18;;;;;;;11.87;9.77;;;4.70;60.00;;;;;;5024668;28;20259;-82
2023/03/08 01:28:44;;;;;;;12.23;9.40;;;4.70;60.20;;;;;;5024421;28;20959;-85
2023/03/08 01:31:12;;;;;;;13.03;10.17;;;4.60;61.90;;;;;;5006918;28;20232;-86
2023/03/08 01:33:38;;;;;;;11.77;9.23;;;4.40;61.30;;;;;;5024837;28;20209;-83
2023/03/08 01:36:04;;;;;;;11.90;9.27;;;4.60;60.70;;;;;;5023215;28;20311;-81
2023/03/08 01:38:30;;;;;;;11.13;8.27;;;4.50;61.00;;;;;;5024502;28;20278;-83
2023/03/08 01:40:57;;;;;;;14.27;10.27;;;4.60;60.60;;;;;;5023408;28;20236;-85
2023/03/08 01:43:28;;;;;;;12.10;9.23;;;4.60;60.80;;;;;;5023458;28;20181;-82
2023/03/08 01:46:24;;;;;;;10.77;8.53;;;4.60;60.40;;;;;;5022973;28;20188;-84
2023/03/08 01:48:49;;;;;;;12.53;8.43;;;4.50;61.50;;;;;;5013568;28;20753;-84
2023/03/08 01:51:20;;;;;;;11.97;9.60;;;4.50;61.30;;;;;;5003326;28;20186;-86
2023/03/08 01:53:46;;;;;;;10.73;8.67;;;4.40;61.70;;;;;;5021753;28;20198;-85
2023/03/08 01:56:14;;;;;;;12.20;10.27;;;4.50;61.40;;;;;;5022287;28;20415;-83
2023/03/08 01:58:42;;;;;;;11.93;10.27;;;4.50;61.20;;;;;;5021962;28;20284;-83
2023/03/08 02:01:08;;;;;;;11.93;9.13;;;4.50;61.50;;;;;;5022273;28;20273;-83
2023/03/08 02:03:34;;;;;;;11.57;10.00;;;4.50;61.30;;;;;;5022397;28;20182;-83
2023/03/08 02:06:00;;;;;;;12.53;9.40;;;4.50;61.30;;;;;;5022531;28;20208;-83
2023/03/08 02:08:26;;;;;;;11.60;9.53;;;4.50;61.50;;;;;;5023351;28;20205;-84
2023/03/08 02:10:52;;;;;;;13.17;10.00;;;4.50;61.80;;;;;;5030361;28;20662;-83
2023/03/08 02:13:20;;;;;;;14.70;10.27;;;4.60;61.40;;;;;;5043213;28;20200;-83
2023/03/08 02:15:46;;;;;;;11.33;9.37;;;4.60;61.30;;;;;;5043837;28;20188;-83
2023/03/08 02:18:12;;;;;;;10.77;9.07;;;4.60;61.90;;;;;;5043262;28;20287;-83
2023/03/08 02:20:39;;;;;;;10.30;9.30;;;4.50;62.50;;;;;;5043490;28;20180;-81
2023/03/08 02:23:09;;;;;;;12.67;9.90;;;4.60;62.10;;;;;;5043819;28;20224;-85
2023/03/08 02:25:35;;;;;;;13.30;10.20;;;4.70;61.00;;;;;;5043289;28;20176;-86
2023/03/08 02:28:02;;;;;;;11.83;9.47;;;4.60;61.40;;;;;;5043635;28;20205;-83
2023/03/08 02:30:32;;;;;;;10.47;8.63;;;4.70;61.00;;;;;;5043277;28;20208;-84
2023/03/08 02:32:58;;;;;;;12.83;9.87;;;4.60;61.40;;;;;;5043825;28;20211;-84
2023/03/08 02:35:24;;;;;;;11.40;9.40;;;4.60;60.70;;;;;;5043847;28;20176;-84
2023/03/08 02:37:49;;;;;;;13.33;9.97;;;4.60;61.10;;;;;;5042747;28;20197;-83
2023/03/08 02:40:15;;;;;;;12.70;10.07;;;4.60;61.10;;;;;;5042364;28;20245;-85
2023/03/08 02:42:41;;;;;;;11.80;9.10;;;4.60;60.90;;;;;;5042260;28;20241;-84
2023/03/08 02:45:07;;;;;;;11.10;9.67;;;4.70;60.10;;;;;;5050250;28;20180;-84
2023/03/08 02:47:33;;;;;;;12.40;8.97;;;4.70;60.50;;;;;;5047067;28;20216;-83
2023/03/08 02:49:59;;;;;;;12.87;9.37;;;4.90;59.60;;;;;;5040927;28;20193;-83
2023/03/08 02:52:25;;;;;;;11.87;9.07;;;4.80;60.10;;;;;;5041854;28;20280;-84
2023/03/08 02:54:52;;;;;;;10.63;8.80;;;4.70;60.70;;;;;;5042088;28;20239;-83
2023/03/08 02:57:18;;;;;;;11.50;9.60;;;4.80;59.80;;;;;;5041040;28;20196;-83
2023/03/08 02:59:44;;;;;;;10.00;9.00;;;4.70;60.50;;;;;;5041465;28;20592;-83
2023/03/08 03:02:09;;;;;;;11.43;10.00;;;4.70;60.70;;;;;;5041836;28;20203;-83
2023/03/08 03:04:35;;;;;;;11.30;9.47;;;4.70;60.50;;;;;;5041890;28;20181;-83
2023/03/08 03:07:01;;;;;;;11.03;9.30;;;4.70;61.00;;;;;;5043104;28;20240;-82
2023/03/08 03:09:27;;;;;;;11.13;8.87;;;4.70;60.40;;;;;;5041822;28;20220;-84
2023/03/08 03:11:53;;;;;;;11.50;8.97;;;4.70;60.90;;;;;;5025487;28;20197;-83
2023/03/08 03:14:19;;;;;;;11.13;9.53;;;4.70;60.80;;;;;;5023693;28;20236;-83
2023/03/08 03:16:45;;;;;;;11.77;8.67;;;4.70;61.30;;;;;;5023527;28;20181;-84
2023/03/08 03:19:11;;;;;;;12.63;9.87;;;4.50;61.80;;;;;;5023062;28;20357;-83
2023/03/08 03:21:38;;;;;;;12.00;8.80;;;4.60;61.30;;;;;;5023452;28;20584;-83
2023/03/08 03:24:04;;;;;;;14.40;10.03;;;4.70;61.40;;;;;;5022957;28;20264;-82
2023/03/08 03:26:30;;;;;;;12.23;9.70;;;4.60;61.70;;;;;;5021816;28;20271;-84
2023/03/08 03:28:58;;;;;;;12.57;9.43;;;4.60;61.30;;;;;;5022802;28;20729;-84
2023/03/08 03:31:24;;;;;;;11.63;9.27;;;4.60;61.90;;;;;;5022631;28;20177;-83
2023/03/08 03:33:51;;;;;;;11.30;9.37;;;4.60;62.20;;;;;;5021129;28;20215;-82
2023/03/08 03:36:19;;;;;;;11.13;9.50;;;4.60;62.40;;;;;;5021509;28;20304;-84
2023/03/08 03:38:45;;;;;;;11.63;9.90;;;4.50;62.80;;;;;;5004095;28;20233;-83
2023/03/08 03:41:13;;;;;;;11.77;9.73;;;4.40;63.60;;;;;;5003193;28;20648;-82
2023/03/08 03:43:40;;;;;;;14.03;9.90;;;4.30;63.90;;;;;;5021058;28;20198;-82
2023/03/08 03:46:09;;;;;;;12.87;10.70;;;4.30;64.30;;;;;;5020493;28;20210;-83
2023/03/08 03:48:35;;;;;;;13.93;10.30;;;4.30;64.60;;;;;;5021168;28;20208;-82
2023/03/08 03:51:06;;;;;;;10.20;9.13;;;4.30;64.50;;;;;;5020784;28;20178;-85
2023/03/08 03:53:33;;;;;;;11.40;9.80;;;4.20;64.40;;;;;;5021136;28;20202;-84
2023/03/08 03:56:13;;;;;;;12.20;9.90;;;4.20;64.30;;;;;;5020281;28;20204;-83
2023/03/08 03:58:39;;;;;;;13.10;9.57;;;4.20;64.90;;;;;;5021735;28;20201;-86
2023/03/08 04:01:23;;;;;;;11.90;10.07;;;4.20;64.60;;;;;;5004667;28;20178;-83
2023/03/08 04:03:49;;;;;;;14.00;10.20;;;4.30;64.90;;;;;;5031593;28;20180;-83
2023/03/08 04:06:29;;;;;;;10.90;9.10;;;4.20;64.50;;;;;;5040781;28;20193;-84
2023/03/08 04:09:06;;;;;;;11.20;9.90;;;4.20;64.70;;;;;;5041828;28;20219;-84
2023/03/08 04:11:36;;;;;;;13.83;9.90;;;4.30;65.00;;;;;;5021818;28;20162;-84
2023/03/08 04:14:02;;;;;;;12.27;10.00;;;4.20;65.50;;;;;;5021858;28;20205;-83
2023/03/08 04:16:30;;;;;;;13.77;10.00;;;4.20;65.80;;;;;;5022466;28;20257;-84
2023/03/08 04:19:01;;;;;;;12.70;10.83;;;4.30;65.10;;;;;;5021634;28;20198;-84
2023/03/08 04:21:28;;;;;;;14.27;10.60;;;4.30;65.30;;;;;;5031318;28;20196;-84
2023/03/08 04:23:53;;;;;;;12.37;10.03;;;4.30;64.70;;;;;;5042460;28;20177;-82
2023/03/08 04:26:20;;;;;;;11.67;9.97;;;4.30;65.30;;;;;;5041660;28;20199;-83
2023/03/08 04:28:46;;;;;;;11.37;9.87;;;4.40;64.50;;;;;;5042098;28;20347;-84
2023/03/08 04:31:16;;;;;;;14.67;10.03;;;4.40;64.50;;;;;;5042599;28;20200;-82
2023/03/08 04:33:42;;;;;;;14.27;10.03;;;4.40;64.30;;;;;;5054149;28;20230;-82
2023/03/08 04:36:09;;;;;;;11.90;9.73;;;4.50;64.20;;;;;;5056010;28;20193;-83
2023/03/08 04:38:35;;;;;;;12.87;10.17;;;4.40;64.40;;;;;;5056783;28;20199;-81
2023/03/08 04:41:00;;;;;;;14.07;10.03;;;4.40;65.00;;;;;;5044397;28;20255;-84
2023/03/08 04:43:27;;;;;;;12.03;10.07;;;4.30;65.20;;;;;;5043426;28;20192;-84
2023/03/08 04:45:53;;;;;;;10.50;9.33;;;4.40;65.00;;;;;;5025882;28;20673;-84
2023/03/08 04:48:19;;;;;;;14.00;10.60;;;4.30;65.40;;;;;;5079462;23;20318;-78
2023/03/08 04:50:50;;;;;;;11.20;9.70;;;4.30;65.40;;;;;;5059994;28;20195;-78
2023/03/08 04:53:16;;;;;;;13.20;10.27;;;4.20;65.90;;;;;;5077480;28;20204;-79
2023/03/08 04:55:42;;;;;;;14.23;11.00;;;4.20;65.70;;;;;;5077689;28;20669;-79
2023/03/08 04:58:07;;;;;;;11.23;10.00;;;4.20;66.20;;;;;;5085977;28;20198;-79
2023/03/08 05:00:33;;;;;;;11.57;9.37;;;4.20;65.90;;;;;;5099038;28;20179;-78
2023/03/08 05:02:58;;;;;;;12.00;9.57;;;4.40;65.00;;;;;;5098650;28;20198;-79
2023/03/08 05:05:24;;;;;;;12.60;9.53;;;4.50;64.30;;;;;;5098086;28;20171;-79
2023/03/08 05:07:49;;;;;;;13.13;10.50;;;4.60;64.10;;;;;;5098656;28;20586;-81
2023/03/08 05:10:15;;;;;;;10.60;9.50;;;4.60;64.00;;;;;;5099622;28;20298;-79
2023/03/08 05:12:41;;;;;;;10.97;9.50;;;4.60;64.30;;;;;;5098775;28;20315;-80
2023/03/08 05:15:07;;;;;;;13.57;10.17;;;4.60;64.40;;;;;;5099436;28;20778;-78
2023/03/08 05:17:32;;;;;;;12.63;10.07;;;4.60;64.20;;;;;;5098340;28;20205;-79
2023/03/08 05:19:58;;;;;;;11.90;10.47;;;4.60;64.00;;;;;;5098125;28;20197;-79
2023/03/08 05:22:24;;;;;;;11.53;9.67;;;4.60;63.90;;;;;;5079534;28;20183;-79
2023/03/08 05:24:49;;;;;;;14.63;11.13;;;4.60;64.30;;;;;;5078205;28;20203;-79
2023/03/08 05:27:15;;;;;;;12.83;10.47;;;4.60;64.50;;;;;;5059876;28;20690;-79
2023/03/08 05:29:41;;;;;;;12.93;10.20;;;4.60;64.60;;;;;;5097908;28;20175;-79
2023/03/08 05:32:10;;;;;;;14.20;10.53;;;4.70;64.60;;;;;;5078858;28;20748;-80
2023/03/08 05:34:36;;;;;;;11.40;9.83;;;4.70;64.70;;;;;;5079224;28;20179;-79
2023/03/08 05:37:02;;;;;;;12.53;10.23;;;4.70;64.40;;;;;;5095737;28;20214;-78
2023/03/08 05:39:29;;;;;;;13.67;10.13;;;4.70;64.20;;;;;;5095406;28;20187;-79
2023/03/08 05:41:55;;;;;;;12.63;9.63;;;4.70;64.40;;;;;;5077439;28;20201;-79
2023/03/08 05:44:20;;;;;;;14.37;10.43;;;4.70;64.20;;;;;;5097846;28;20182;-79
2023/03/08 05:46:49;;;;;;;13.37;9.50;;;4.60;64.80;;;;;;5098001;28;20186;-79
2023/03/08 05:49:15;;;;;;;13.80;10.03;;;4.60;64.80;;;;;;5097738;28;20215;-79
2023/03/08 05:51:40;;;;;;;14.07;10.37;;;4.70;64.40;;;;;;5098328;28;20179;-78
2023/03/08 05:54:06;;;;;;;11.97;10.20;;;4.70;64.70;;;;;;5097461;28;20234;-79
2023/03/08 05:56:32;;;;;;;13.43;10.93;;;4.50;65.90;;;;;;5091352;28;20262;-79
2023/03/08 05:58:57;;;;;;;11.43;9.80;;;4.60;65.10;;;;;;5098163;28;20199;-79
2023/03/08 06:01:25;;;;;;;12.97;10.83;;;4.60;65.50;;;;;;5100675;28;20457;-80
2023/03/08 06:03:53;;;;;;;13.43;11.03;;;4.50;65.60;;;;;;5080991;28;20183;-80
2023/03/08 06:06:19;;;;;;;12.87;10.70;;;4.50;65.90;;;;;;5098577;28;20202;-80
2023/03/08 06:08:46;;;;;;;18.30;12.23;;;4.50;66.80;;;;;;5099345;28;20202;-79
2023/03/08 06:11:12;;;;;;;13.47;10.93;;;4.50;66.60;;;;;;5098303;28;20279;-79
2023/03/08 06:13:38;;;;;;;17.67;11.17;;;4.40;66.90;;;;;;5097315;28;20672;-80
2023/03/08 06:16:04;;;;;;;14.33;10.87;;;4.60;66.80;;;;;;5098514;28;20170;-80
2023/03/08 06:18:30;;;;;;;13.83;11.07;;;4.70;66.40;;;;;;5098238;28;20230;-79
2023/03/08 06:20:59;;;;;;;13.97;11.60;;;4.60;67.90;;;;;;5099372;28;20682;-81
2023/03/08 06:23:25;;;;;;;13.63;11.30;;;4.50;68.60;;;;;;5098986;28;20178;-78
2023/03/08 06:25:51;;;;;;;12.83;10.60;;;4.70;68.80;;;;;;5096780;28;20179;-79
2023/03/08 06:28:17;;;;;;;16.60;11.40;;;4.70;69.60;;;;;;5097282;28;20278;-79
2023/03/08 06:30:43;;;;;;;16.20;11.33;;;4.70;72.50;;;;;;5096370;28;20194;-80
2023/03/08 06:33:08;;;;;;;12.83;11.20;;;4.50;75.90;;;;;;5096487;28;20206;-79
2023/03/08 06:35:34;;;;;;;17.17;11.60;;;4.50;76.80;;;;;;5095602;28;20186;-81
2023/03/08 06:38:00;;;;;;;15.03;12.33;;;4.50;79.10;;;;;;5077090;28;20195;-79
2023/03/08 06:40:25;;;;;;;16.47;12.80;;;4.40;81.50;;;;;;5096095;28;20171;-82
2023/03/08 06:42:51;;;;;;;14.53;11.70;;;4.20;85.40;;;;;;5096607;28;20183;-80
2023/03/08 06:45:17;;;;;;;16.30;12.13;;;4.20;87.90;;;;;;5095598;28;20183;-79
2023/03/08 06:47:45;;;;;;;14.60;12.43;;;4.20;88.10;;;;;;5094325;28;20876;-79
2023/03/08 06:50:11;;;;;;;14.70;12.20;;;4.20;90.10;;;;;;5096865;28;20649;-77
2023/03/08 06:52:37;;;;;;;15.37;12.77;;;4.10;91.80;;;;;;5096660;28;20205;-79
2023/03/08 06:55:03;;;;;;;15.57;12.50;;;4.00;94.50;;;;;;5097871;28;20649;-79
2023/03/08 06:57:29;;;;;;;14.57;12.23;;;3.90;98.90;;;;;;5080533;28;20890;-79
2023/03/08 06:59:55;;;;;;;14.03;12.33;;;4.00;96.50;;;;;;5096935;28;20201;-79
2023/03/08 07:02:20;;;;;;;16.23;13.67;;;4.00;97.70;;;;;;5098660;28;20182;-79
2023/03/08 07:04:46;;;;;;;15.10;12.97;;;3.90;98.70;;;;;;5095923;28;20261;-77
2023/03/08 07:07:12;;;;;;;14.40;12.20;;;3.70;98.30;;;;;;5092315;28;20575;-79
2023/03/08 07:09:37;;;;;;;16.07;13.13;;;3.80;99.90;;;;;;5082216;28;20171;-80
2023/03/08 07:12:03;;;;;;;14.57;12.83;;;3.70;99.90;;;;;;5098611;28;20650;-78
2023/03/08 07:14:29;;;;;;;15.83;12.30;;;3.70;99.90;;;;;;5098934;28;20171;-80
2023/03/08 07:16:57;;;;;;;15.73;12.67;;;3.80;99.90;;;;;;5099527;28;20180;-79
2023/03/08 07:19:23;;;;;;;15.67;12.53;;;3.80;99.90;;;;;;5079027;28;20286;-79
2023/03/08 07:21:48;;;;;;;14.77;12.27;;;3.80;99.90;;;;;;5096284;28;20381;-78
2023/03/08 07:24:14;;;;;;;16.33;12.33;;;3.80;99.90;;;;;;5095831;28;20179;-78
2023/03/08 07:26:40;;;;;;;16.00;12.73;;;3.90;99.90;;;;;;5096491;28;20167;-80
2023/03/08 07:29:06;;;;;;;13.90;12.07;;;4.10;99.90;;;;;;5096783;28;20195;-78
2023/03/08 07:31:35;;;;;;;13.57;12.17;;;4.00;99.90;;;;;;5096911;28;20188;-80
2023/03/08 07:34:03;;;;;;;17.07;12.37;;;4.00;99.90;;;;;;5095496;28;20264;-80
2023/03/08 07:36:29;;;;;;;13.33;11.00;;;4.10;99.90;;;;;;5095905;28;20174;-77
2023/03/08 07:38:55;;;;;;;13.63;10.87;;;3.90;99.90;;;;;;5096866;28;20274;-79
2023/03/08 07:41:20;;;;;;;14.40;11.33;;;3.80;99.90;;;;;;5097081;28;20185;-78
2023/03/08 07:43:46;;;;;;;12.23;10.73;;;3.80;99.90;;;;;;5096985;28;20171;-79
2023/03/08 07:46:11;;;;;;;12.43;10.70;;;3.80;99.90;;;;;;5095659;28;20182;-80
2023/03/08 07:48:37;;;;;;;15.00;11.67;;;3.70;99.90;;;;;;5095657;28;20238;-79
2023/03/08 07:51:06;;;;;;;17.17;11.40;;;3.70;99.90;;;;;;5095999;28;20208;-80
2023/03/08 07:53:32;;;;;;;12.17;10.13;;;3.60;99.90;;;;;;5077476;28;20209;-79
2023/03/08 07:55:59;;;;;;;13.33;10.60;;;3.70;99.90;;;;;;5076935;28;20183;-78
2023/03/08 07:58:26;;;;;;;11.87;10.53;;;3.70;99.90;;;;;;5078228;28;20218;-79
2023/03/08 08:00:52;;;;;;;15.57;12.13;;;3.70;99.90;;;;;;5079156;28;20186;-80
2023/03/08 08:03:18;;;;;;;14.00;10.67;;;3.80;99.90;;;;;;5079014;28;20202;-80
2023/03/08 08:05:43;;;;;;;11.03;9.53;;;3.80;99.90;;;;;;5078215;28;20179;-80
2023/03/08 08:08:12;;;;;;;14.53;10.57;;;3.80;99.90;;;;;;5078108;28;20195;-80
2023/03/08 08:10:42;;;;;;;10.93;9.87;;;3.90;99.90;;;;;;5091588;28;20178;-80
2023/03/08 08:13:08;;;;;;;14.90;10.70;;;4.00;99.90;;;;;;5101036;28;20593;-79
2023/03/08 08:15:34;;;;;;;12.30;9.63;;;4.00;99.90;;;;;;5098819;28;20175;-80
2023/03/08 08:18:00;;;;;;;13.33;10.70;;;4.20;99.90;;;;;;5097851;28;20191;-80
2023/03/08 08:20:26;;;;;;;11.47;10.27;;;4.20;99.90;;;;;;5097014;28;20201;-81
2023/03/08 08:22:53;;;;;;;12.80;10.77;;;4.30;99.90;;;;;;5094964;28;20171;-81
2023/03/08 08:25:19;;;;;;;10.97;9.87;;;4.40;99.90;;;;;;5095566;28;20175;-80
2023/03/08 08:27:45;;;;;;;13.73;10.40;;;4.40;99.90;;;;;;5095141;28;20194;-78
2023/03/08 08:30:12;;;;;;;11.83;10.40;;;4.40;99.90;;;;;;5096290;28;20183;-80
2023/03/08 08:32:38;;;;;;;15.23;10.97;;;4.50;99.90;;;;;;5095575;28;20195;-80
2023/03/08 08:35:04;;;;;;;11.73;10.37;;;4.50;99.90;;;;;;5098428;28;20182;-80
2023/03/08 08:37:31;;;;;;;12.47;10.60;;;4.30;99.90;;;;;;5097754;28;20191;-79
2023/03/08 08:39:57;;;;;;;13.63;10.40;;;4.20;99.90;;;;;;5099119;28;20236;-82
2023/03/08 08:42:23;;;;;;;11.90;9.83;;;4.30;99.90;;;;;;5098381;28;20179;-79
2023/03/08 08:44:51;;;;;;;10.60;9.47;;;4.30;99.90;;;;;;5097004;28;20809;-80
2023/03/08 08:47:16;;;;;;;13.33;9.73;;;4.30;99.90;;;;;;5099052;28;20257;-81
2023/03/08 08:49:42;;;;;;;11.33;8.83;;;4.30;99.90;;;;;;5098793;28;20226;-80
2023/03/08 08:52:07;;;;;;;14.00;9.43;;;4.30;99.90;;;;;;5098327;28;20179;-80
2023/03/08 08:54:33;;;;;;;10.13;9.03;;;4.20;99.90;;;;;;5100573;28;20178;-79
2023/03/08 08:56:59;;;;;;;11.43;9.60;;;4.20;99.90;;;;;;5101828;28;20312;-80
2023/03/08 08:59:25;;;;;;;13.20;10.03;;;4.20;99.90;;;;;;5098878;28;20568;-79
2023/03/08 09:01:50;;;;;;;13.30;10.70;;;4.10;99.90;;;;;;5098459;28;20198;-81
2023/03/08 09:04:18;;;;;;;10.77;9.70;;;4.10;99.90;;;;;;5097572;28;20818;-80
2023/03/08 09:06:44;;;;;;;12.67;9.77;;;4.10;99.90;;;;;;5097420;28;20262;-81
2023/03/08 09:09:09;;;;;;;12.03;10.73;;;4.20;99.90;;;;;;5098148;28;20206;-80
2023/03/08 09:11:35;;;;;;;12.40;10.60;;;4.20;99.90;;;;;;5098097;28;20171;-80
2023/03/08 09:14:02;;;;;;;12.53;11.23;;;4.20;99.90;;;;;;5097500;28;20715;-79
2023/03/08 09:16:30;;;;;;;12.67;10.80;;;4.30;99.90;;;;;;5095836;28;20451;-79
2023/03/08 09:18:56;;;;;;;12.53;10.10;;;4.40;99.90;;;;;;5096241;28;20191;-82
2023/03/08 09:21:23;;;;;;;14.87;10.73;;;4.40;99.90;;;;;;5095666;28;20171;-81
2023/03/08 09:23:49;;;;;;;13.37;10.67;;;4.40;99.90;;;;;;5095053;28;20179;-80
2023/03/08 09:26:15;;;;;;;17.10;11.67;;;4.40;99.90;;;;;;5095516;28;20163;-79
2023/03/08 09:28:40;;;;;;;17.30;11.63;;;4.40;99.90;;;;;;5096508;28;20244;-80
2023/03/08 09:31:18;;;;;;;15.57;12.00;;;4.40;99.90;;;;;;5097612;28;20262;-80
2023/03/08 09:33:50;;;;;;;15.77;11.30;;;4.40;99.90;;;;;;5097308;28;20186;-80
2023/03/08 09:36:16;;;;;;;15.73;11.77;;;4.40;99.90;;;;;;5082499;28;20237;-80
2023/03/08 09:38:42;;;;;;;13.30;10.60;;;4.60;99.90;;;;;;5105820;28;20191;-79
2023/03/08 09:41:26;;;;;;;12.13;10.83;;;4.60;99.90;;;;;;5100979;28;20275;-79
2023/03/08 09:44:10;;;;;;;11.53;10.27;;;4.80;99.90;;;;;;5092552;28;20718;-81
2023/03/08 09:46:48;;;;;;;11.73;9.50;;;4.80;99.90;;;;;;5098305;28;20280;-80
2023/03/08 09:49:24;;;;;;;12.23;9.00;;;4.90;99.90;;;;;;5097860;28;20360;-81
2023/03/08 09:51:56;;;;;;;9.63;8.53;;;5.00;99.90;;;;;;5098287;28;20893;-80
2023/03/08 09:54:24;;;;;;;11.10;9.23;;;5.00;99.90;;;;;;5096856;28;20194;-80
2023/03/08 09:56:52;;;;;;;11.80;10.50;;;5.20;99.90;;;;;;5098016;28;20171;-81
2023/03/08 09:59:32;;;;;;;13.07;10.50;;;5.20;99.90;;;;;;5098001;28;20224;-81
2023/03/08 10:02:35;;;;;;;13.07;9.80;;;5.30;99.90;;;;;;5097170;28;20171;-80
2023/03/08 10:05:36;;;;;;;10.67;9.57;;;5.30;99.90;;;;;;5098331;28;20672;-81
2023/03/08 10:08:05;;;;;;;12.23;10.03;;;5.30;99.90;;;;;;5081256;28;20213;-81
2023/03/08 10:11:03;;;;;;;13.83;10.10;;;5.30;99.90;;;;;;5098142;28;20663;-83
2023/03/08 10:13:39;;;;;;;11.70;10.50;;;5.30;99.90;;;;;;5094608;28;20208;-82
2023/03/08 10:16:09;;;;;;;11.63;10.30;;;5.20;99.90;;;;;;5095507;28;20167;-80
2023/03/08 10:18:39;;;;;;;11.97;10.33;;;5.30;99.90;;;;;;5095476;28;20248;-81
2023/03/08 10:21:08;;;;;;;11.57;10.37;;;5.30;99.90;;;;;;5094994;28;20181;-82
2023/03/08 10:23:35;;;;;;;11.90;10.80;;;5.40;99.90;;;;;;5096537;28;20775;-80
2023/03/08 10:26:05;;;;;;;12.03;10.87;;;5.60;99.90;;;;;;5096130;28;20255;-80
2023/03/08 10:28:31;;;;;;;12.37;11.03;;;5.60;99.90;;;;;;5097481;28;20210;-81
2023/03/08 10:31:00;;;;;;;12.07;10.90;;;5.70;99.90;;;;;;5099017;28;20189;-81
2023/03/08 10:33:31;;;;;;;13.20;10.50;;;5.70;99.90;;;;;;5097886;28;20198;-81
2023/03/08 10:36:15;;;;;;;13.00;10.20;;;5.70;99.90;;;;;;5104884;28;20152;-80
2023/03/08 10:38:42;;;;;;;11.17;10.07;;;5.80;99.90;;;;;;5099937;28;20198;-81
2023/03/08 10:41:15;;;;;;;13.20;10.80;;;5.80;99.90;;;;;;5099340;28;20687;-80
2023/03/08 10:43:53;;;;;;;12.67;9.93;;;5.70;99.90;;;;;;5097574;28;20170;-80
2023/03/08 10:46:29;;;;;;;11.80;10.67;;;5.90;99.90;;;;;;5097647;28;20169;-81
2023/03/08 10:49:06;;;;;;;11.73;10.20;;;5.80;99.90;;;;;;5098544;28;20249;-79
2023/03/08 10:51:35;;;;;;;11.10;10.00;;;6.00;99.90;;;;;;5097693;28;20159;-81
2023/03/08 10:54:04;;;;;;;10.93;9.57;;;5.90;99.90;;;;;;5098233;28;20290;-81
2023/03/08 10:56:39;;;;;;;12.53;10.07;;;5.80;99.90;;;;;;5097824;28;20178;-81
2023/03/08 10:59:15;;;;;;;12.83;11.10;;;5.90;99.90;;;;;;5097950;28;20561;-79
2023/03/08 11:01:57;;;;;;;11.50;10.03;;;6.00;99.90;;;;;;5098157;28;20165;-82
2023/03/08 11:04:24;;;;;;;9.30;8.30;;;6.20;99.90;;;;;;5097776;28;20553;-80
2023/03/08 11:06:50;;;;;;;9.77;8.77;;;6.20;99.90;;;;;;5097576;28;20182;-83
2023/03/08 11:09:35;;;;;;;6.50;5.33;;;6.30;99.90;;;;;;5096350;28;20403;-81
2023/03/08 11:12:01;;;;;;;5.40;4.90;;;6.50;99.90;;;;;;5095885;28;20158;-81
2023/03/08 11:14:31;;;;;;;4.70;4.10;;;6.70;99.90;;;;;;5095633;28;20247;-81
2023/03/08 11:17:18;;;;;;;4.23;3.83;;;7.00;99.90;;;;;;5098121;28;20198;-78
2023/03/08 11:19:58;;;;;;;4.23;3.83;;;7.20;99.90;;;;;;5101000;28;20185;-79
2023/03/08 11:22:33;;;;;;;4.13;3.73;;;7.50;99.90;;;;;;5099770;28;20177;-78
2023/03/08 11:25:38;;;;;;;5.03;3.70;;;7.50;99.90;;;;;;5104270;28;20189;-80
2023/03/08 11:28:24;;;;;;;3.20;2.90;;;7.80;99.90;;;;;;5055030;28;20207;-79
2023/03/08 11:31:18;;;;;;;4.37;3.83;;;7.90;99.90;;;;;;5097414;28;20174;-80
2023/03/08 11:34:11;;;;;;;4.20;3.80;;;8.00;99.90;;;;;;5077706;28;20235;-80
2023/03/08 11:37:04;;;;;;;3.93;3.53;;;8.10;99.90;;;;;;5088899;28;20183;-80
2023/03/08 11:39:31;;;;;;;4.07;3.53;;;8.20;99.90;;;;;;5095850;28;20738;-82
2023/03/08 11:42:15;;;;;;;2.93;2.73;;;8.30;99.90;;;;;;5095621;28;20179;-81
2023/03/08 11:44:44;;;;;;;3.70;3.40;;;8.30;99.90;;;;;;5096698;28;20197;-79
2023/03/08 11:47:38;;;;;;;3.40;3.10;;;8.40;99.90;;;;;;5098605;28;20227;-79
2023/03/08 11:50:12;;;;;;;5.43;3.40;;;8.70;99.90;;;;;;5082572;28;20179;-80
2023/03/08 11:52:57;;;;;;;3.83;3.37;;;8.80;99.90;;;;;;5099298;28;20195;-79
2023/03/08 11:56:01;;;;;;;5.50;3.17;;;8.80;99.90;;;;;;5098989;28;20246;-78
2023/03/08 11:58:46;;;;;;;3.63;3.23;;;8.80;99.90;;;;;;5099577;28;20210;-78
2023/03/08 12:01:27;;;;;;;4.27;3.40;;;8.90;99.90;;;;;;5099162;28;20182;-78
2023/03/08 12:03:58;;;;;;;4.07;3.67;;;9.00;99.90;;;;;;5098946;28;20254;-79
2023/03/08 12:06:40;;;;;;;3.27;3.00;;;9.10;99.90;;;;;;5097822;28;20163;-83
2023/03/08 12:09:06;;;;;;;3.87;3.10;;;9.10;99.90;;;;;;5095833;28;20266;-77
2023/03/08 12:11:39;;;;;;;4.70;2.90;;;9.30;99.90;;;;;;5095879;28;20421;-80
2023/03/08 12:14:44;;;;;;;3.27;2.73;;;9.40;99.90;;;;;;5097350;28;20190;-79
2023/03/08 12:17:30;;;;;;;3.30;3.00;;;9.60;99.90;;;;;;5047692;28;20183;-80
2023/03/08 12:19:56;;;;;;;3.93;3.07;;;9.60;99.90;;;;;;5097036;28;20250;-80
2023/03/08 12:22:40;;;;;;;3.60;2.67;;;9.70;99.90;;;;;;5099402;28;20175;-79
2023/03/08 12:25:40;;;;;;;3.00;2.70;;;9.70;99.90;;;;;;5099520;28;20178;-79
2023/03/08 12:28:29;;;;;;;2.70;2.50;;;9.80;99.90;;;;;;5035559;28;20777;-81
2023/03/08 12:31:07;;;;;;;2.70;2.50;;;9.90;99.70;;;;;;5092966;28;20363;-79
2023/03/08 12:33:33;;;;;;;3.97;2.43;;;10.00;98.80;;;;;;5098949;28;20206;-77
2023/03/08 12:36:04;;;;;;;2.30;2.10;;;10.00;98.60;;;;;;5099102;28;20265;-79
2023/03/08 12:38:36;;;;;;;2.57;2.27;;;10.20;97.90;;;;;;5097542;28;20757;-79
2023/03/08 12:41:05;;;;;;;3.23;2.30;;;10.20;97.50;;;;;;5099029;28;20246;-78
2023/03/08 12:46:09;;;;;;;2.20;2.00;;;10.30;96.80;;;;;;5112004;22;20238;-83
2023/03/08 12:48:38;;;;;;;2.50;2.20;;;10.30;97.10;;;;;;5085150;28;20258;-86
2023/03/08 12:51:15;;;;;;;3.17;2.57;;;10.40;96.50;;;;;;5084799;28;20184;-85
2023/03/08 12:53:50;;;;;;;2.57;2.37;;;10.50;95.90;;;;;;5085338;28;20272;-87
2023/03/08 12:56:26;;;;;;;2.53;2.23;;;10.60;95.60;;;;;;5084383;28;20179;-85